Ontario, Indiana
Current Conditions -  °F | °C
As of 11:15 AM on Friday 24 Oct 2014 (Local Time) from KIRS Reporting Station
Overcast Overcast  
Wind Chill: 52°   Ceiling: 2100
Heat Index: 52°   Visibility: 7mi
Dew Point: 46°   Wind: 3mph
Humidity: 82%   Direction: 230°SW
Pressure: 30.08"   Gusts: NA
Location:  41.7293°N, 85.4292°W
Report Text: KIRS 241515Z AUTO 23003KT 7SM OVC021 11/08 A3008 RMK AO2
Loading
Personal Weather Stations






























Interactive Weather Map New forecast layout! Learn more

10-Day Weather Forecast

Advertisements
Track Severe Weather on mobile